Greenville, WI

07:21 PM CDT on Augusto 20, 2014 (GMT -0500)
East End, School Road | Change Station
CLOSE
Current Station
Personal Weather Stations
Location: Greenville, WI
Elevation: 880 ft
Nearby Weather Stations

Elev 880 ft 44.29 °N, 88.52 °W | Updated 11 seconds ago

Scattered Clouds
Scattered Clouds
72.3 °F
Feels Like 73 °F
N
0.0
Hangin Variable Hangin from North
Gusts 1.0 mph

Ngayon
High -- | Low -- °F
--% Chance of Precip.
Yesterday
High -- | Low -- °F
Precip. -- sa
6:03 AM 7:51 PM
Waning Crescent, 18% visible
Pwersa 29.91 sa
Paningin 10.0 milya
Mga Ulap Scattered Clouds 2500 ft
HeatIndex 73 °F
Hamog 65 °F
Humidito 77%
Rainfall 0.00 sa
Snow Depth Not available.
UV 0 out of 12
Pollen 9.10 out of 12
Ozone Mabuti
PM2.5 Mabuti
Flu Activity Not available.
METAR KATW 202345Z 01007KT 10SM SCT025 23/16 A2991

More Conditions Fewer Conditions

Pwersa 29.91 sa
Paningin 10.0 milya
Mga Ulap Scattered Clouds 2500 ft
HeatIndex 73 °F
Hamog 65 °F
Humidito 77%
Rainfall 0.00 sa
Snow Depth Not available.
UV 0 out of 12
Pollen 9.10 out of 12
Ozone Mabuti
PM2.5 Mabuti
Flu Activity Not available.
METAR KATW 202345Z 01007KT 10SM SCT025 23/16 A2991

More Conditions Fewer Conditions

10-Day Weather Forecast

Almanac

Astronomiya

Aug. 20, 2014 Rise Set
Actual Time 6:03 AM CDT 7:51 PM CDT
Civil Twilight 5:32 AM CDT 8:21 PM CDT
Nautical Twilight 4:54 AM CDT 8:59 PM CDT
Astronomical Twilight 4:13 AM CDT 9:40 PM CDT
Buwan 1:38 AM CDT (8/20) 4:39 PM CDT (8/20)
Length Of Visible Light 14h 49m
Haba ng Araw
13h 47m
Tomorrow will be 2m 49s shorter.
Waning Crescent, 18% of the Moon is Illuminated
Ngayon
Waning Crescent
Aug 25
New
Sep 2
Unang Quarter
Sep 8
Kabilugan ng Buwan
Sep 15
Last Quarter

Today's Extremes

State Highs State Lows

Community

WunderPhotos

Upload Photos

1,745,807 photos uploaded!

WunderBlogs® & News

Nearby

Air Quality

  Air Quality AQ Index Pollutant
Yesterday Mabuti
OZONE
Yesterday Mabuti
PM2.5
Current Mabuti
OZONE
Current Mabuti
PM2.5
Miyerkules Mabuti
OZONE
Miyerkules Mabuti
PM2.5
Huwebes Mabuti
OZONE
Huwebes Mabuti
PM2.5
Biernes Katamtaman
OZONE
Biernes Katamtaman
PM2.5
SAbado Katamtaman
OZONE
SAbado Katamtaman
PM2.5

Snow Depth

Station Depth Elevation
No new snow has been reported.

Earthquake Activity

Siyudad Distance Mag. Time & Date
No recent earthquake activity has been reported nearby.
Minimum magnitude displayed is 2.5.

Coastal Water Temperatures

lugar Temparatura
No Stations Reporting

Nearby Weather Stations